Time,TemperatureF,DewpointF,PressureIn,WindDirection,WindDirectionDegrees,WindSpeedMPH,WindSpeedGustMPH,Humidity,HourlyPrecipIn,Conditions,Clouds,dailyrainin,SoftwareType,DateUTC
2013-05-30 00:02:00,74.0,65.0,29.73,ENE,59,3.0,10.0,74,0.00,,,0.00,,2013-05-30 05:02:00,
2013-05-30 00:12:00,74.0,65.0,29.73,ENE,59,3.0,10.0,74,0.00,,,0.00,,2013-05-30 05:12:00,
2013-05-30 00:22:00,74.0,65.0,29.74,WNW,290,3.0,8.0,74,0.00,,,0.00,,2013-05-30 05:22:00,
2013-05-30 00:32:00,74.0,65.0,29.75,NNE,23,1.0,7.0,73,0.00,,,0.00,,2013-05-30 05:32:00,
2013-05-30 00:42:00,74.0,65.0,29.75,NNE,23,1.0,7.0,73,0.00,,,0.00,,2013-05-30 05:42:00,
2013-05-30 00:52:00,74.0,65.0,29.73,NNE,20,5.0,10.0,73,0.00,,,0.00,,2013-05-30 05:52:00,
2013-05-30 01:01:00,74.0,65.0,29.73,East,82,3.0,10.0,73,0.00,,,0.00,,2013-05-30 06:01:00,
2013-05-30 01:12:00,74.0,65.0,29.73,East,82,3.0,10.0,73,0.00,,,0.00,,2013-05-30 06:12:00,
2013-05-30 01:22:00,74.0,65.0,29.73,West,279,4.0,10.0,74,0.00,,,0.00,,2013-05-30 06:22:00,
2013-05-30 01:32:00,74.0,65.0,29.73,ENE,62,4.0,8.0,74,0.00,,,0.00,,2013-05-30 06:32:00,
2013-05-30 01:42:00,74.0,65.0,29.73,ENE,62,4.0,8.0,74,0.00,,,0.00,,2013-05-30 06:42:00,
2013-05-30 01:52:00,74.0,65.0,29.73,NE,51,3.0,8.0,74,0.00,,,0.00,,2013-05-30 06:52:00,
2013-05-30 02:01:00,74.0,66.0,29.72,NE,44,3.0,8.0,75,0.00,,,0.00,,2013-05-30 07:01:00,
2013-05-30 02:12:00,74.0,66.0,29.72,NE,44,3.0,8.0,75,0.00,,,0.00,,2013-05-30 07:12:00,
2013-05-30 02:22:00,73.0,65.0,29.72,NW,306,2.0,9.0,75,0.00,,,0.00,,2013-05-30 07:22:00,
2013-05-30 02:32:00,73.0,65.0,29.75,West,275,0.0,9.0,76,0.00,,,0.00,,2013-05-30 07:32:00,
2013-05-30 02:42:00,73.0,65.0,29.75,West,275,0.0,9.0,76,0.00,,,0.00,,2013-05-30 07:42:00,
2013-05-30 02:52:00,66.0,62.0,29.78,NE,54,3.0,7.0,86,0.02,,,0.02,,2013-05-30 07:52:00,
2013-05-30 03:02:00,64.0,61.0,29.79,SW,229,0.0,5.0,91,0.04,,,0.04,,2013-05-30 08:02:00,
2013-05-30 03:11:00,64.0,61.0,29.79,SW,229,0.0,5.0,91,0.04,,,0.04,,2013-05-30 08:11:00,
2013-05-30 03:21:00,63.0,61.0,29.78,SW,229,0.0,0.0,93,0.06,,,0.06,,2013-05-30 08:21:00,
2013-05-30 03:32:00,62.0,60.0,29.78,ENE,72,0.0,2.0,94,0.07,,,0.07,,2013-05-30 08:32:00,
2013-05-30 03:42:00,62.0,60.0,29.78,ENE,72,0.0,2.0,94,0.07,,,0.07,,2013-05-30 08:42:00,
2013-05-30 03:52:00,62.0,61.0,29.78,ENE,60,1.0,5.0,95,0.07,,,0.09,,2013-05-30 08:52:00,
2013-05-30 04:01:00,62.0,61.0,29.78,ENE,65,0.0,3.0,95,0.07,,,0.11,,2013-05-30 09:01:00,
2013-05-30 04:11:00,62.0,61.0,29.78,ENE,65,0.0,3.0,95,0.07,,,0.11,,2013-05-30 09:11:00,
2013-05-30 04:21:00,62.0,61.0,29.78,ENE,71,0.0,4.0,95,0.07,,,0.13,,2013-05-30 09:21:00,
2013-05-30 04:33:00,62.0,61.0,29.77,ENE,74,0.0,2.0,95,0.09,,,0.16,,2013-05-30 09:33:00,
2013-05-30 04:42:00,62.0,61.0,29.77,ENE,74,0.0,2.0,95,0.09,,,0.16,,2013-05-30 09:42:00,
2013-05-30 04:53:00,62.0,61.0,29.75,ENE,67,0.0,2.0,95,0.10,,,0.19,,2013-05-30 09:53:00,
2013-05-30 05:03:00,62.0,61.0,29.74,ENE,67,0.0,1.0,96,0.10,,,0.22,,2013-05-30 10:03:00,
2013-05-30 05:13:00,62.0,61.0,29.74,ENE,67,0.0,1.0,96,0.10,,,0.22,,2013-05-30 10:13:00,
2013-05-30 05:23:00,62.0,61.0,29.73,ENE,70,0.0,2.0,96,0.11,,,0.25,,2013-05-30 10:23:00,
2013-05-30 05:32:00,62.0,61.0,29.73,ENE,77,0.0,2.0,95,0.12,,,0.28,,2013-05-30 10:32:00,
2013-05-30 05:42:00,62.0,61.0,29.73,ENE,77,0.0,2.0,95,0.12,,,0.28,,2013-05-30 10:42:00,
2013-05-30 05:52:00,61.0,60.0,29.73,East,79,0.0,2.0,95,0.11,,,0.30,,2013-05-30 10:52:00,
2013-05-30 06:03:00,61.0,60.0,29.74,East,85,0.0,2.0,96,0.10,,,0.32,,2013-05-30 11:03:00,
2013-05-30 06:12:00,61.0,60.0,29.74,East,85,0.0,2.0,96,0.10,,,0.32,,2013-05-30 11:12:00,
2013-05-30 06:22:00,61.0,60.0,29.73,ENE,77,0.0,4.0,96,0.08,,,0.33,,2013-05-30 11:22:00,
2013-05-30 06:32:00,62.0,61.0,29.73,ENE,65,0.0,2.0,96,0.06,,,0.34,,2013-05-30 11:32:00,
2013-05-30 06:42:00,62.0,61.0,29.73,ENE,65,0.0,2.0,96,0.06,,,0.34,,2013-05-30 11:42:00,
2013-05-30 06:52:00,62.0,61.0,29.75,ENE,76,0.0,1.0,96,0.04,,,0.34,,2013-05-30 11:52:00,
2013-05-30 07:01:00,62.0,61.0,29.76,ENE,76,0.0,0.0,97,0.02,,,0.34,,2013-05-30 12:01:00,
2013-05-30 07:11:00,62.0,61.0,29.76,ENE,76,0.0,0.0,97,0.02,,,0.34,,2013-05-30 12:11:00,
2013-05-30 07:22:00,62.0,61.0,29.76,ENE,76,0.0,0.0,97,0.01,,,0.34,,2013-05-30 12:22:00,
2013-05-30 07:32:00,63.0,62.0,29.76,East,79,0.0,2.0,98,0.00,,,0.34,,2013-05-30 12:32:00,
2013-05-30 07:42:00,63.0,62.0,29.76,East,79,0.0,2.0,98,0.00,,,0.34,,2013-05-30 12:42:00,
2013-05-30 07:52:00,64.0,63.0,29.76,ENE,57,0.0,4.0,97,0.00,,,0.34,,2013-05-30 12:52:00,
2013-05-30 08:01:00,66.0,65.0,29.77,NE,51,0.0,4.0,95,0.00,,,0.34,,2013-05-30 13:01:00,
2013-05-30 08:11:00,66.0,65.0,29.77,NE,51,0.0,4.0,95,0.00,,,0.34,,2013-05-30 13:11:00,
2013-05-30 08:22:00,68.0,66.0,29.75,ENE,59,3.0,6.0,93,0.00,,,0.34,,2013-05-30 13:22:00,
2013-05-30 08:32:00,69.0,66.0,29.75,NE,44,2.0,8.0,90,0.00,,,0.34,,2013-05-30 13:32:00,
2013-05-30 08:42:00,69.0,66.0,29.75,NE,44,2.0,8.0,90,0.00,,,0.34,,2013-05-30 13:42:00,
2013-05-30 08:52:00,71.0,67.0,29.75,North,5,1.0,7.0,88,0.00,,,0.34,,2013-05-30 13:52:00,
2013-05-30 09:01:00,72.0,68.0,29.75,East,81,2.0,8.0,86,0.00,,,0.34,,2013-05-30 14:01:00,
2013-05-30 09:11:00,72.0,68.0,29.75,East,81,2.0,8.0,86,0.00,,,0.34,,2013-05-30 14:11:00,
2013-05-30 09:22:00,73.0,68.0,29.75,North,351,3.0,7.0,84,0.00,,,0.34,,2013-05-30 14:22:00,
2013-05-30 09:32:00,73.0,67.0,29.73,ENE,66,5.0,11.0,82,0.00,,,0.34,,2013-05-30 14:32:00,
2013-05-30 09:42:00,73.0,67.0,29.73,ENE,66,5.0,11.0,82,0.00,,,0.34,,2013-05-30 14:42:00,
2013-05-30 09:52:00,74.0,67.0,29.73,NE,39,3.0,10.0,80,0.00,,,0.34,,2013-05-30 14:52:00,
2013-05-30 10:01:00,75.0,68.0,29.73,NE,34,2.0,10.0,80,0.00,,,0.34,,2013-05-30 15:01:00,
2013-05-30 10:11:00,75.0,68.0,29.73,NE,34,2.0,10.0,80,0.00,,,0.34,,2013-05-30 15:11:00,
2013-05-30 10:22:00,76.0,68.0,29.72,North,9,3.0,10.0,77,0.00,,,0.34,,2013-05-30 15:22:00,
2013-05-30 10:33:00,76.0,68.0,29.73,ENE,62,4.0,11.0,77,0.00,,,0.34,,2013-05-30 15:33:00,
2013-05-30 10:42:00,76.0,68.0,29.73,ENE,62,4.0,11.0,77,0.00,,,0.34,,2013-05-30 15:42:00,
2013-05-30 10:52:00,76.0,68.0,29.75,ENE,69,2.0,10.0,77,0.00,,,0.34,,2013-05-30 15:52:00,
2013-05-30 11:03:00,76.0,68.0,29.75,East,98,3.0,10.0,77,0.00,,,0.34,,2013-05-30 16:03:00,
2013-05-30 11:12:00,76.0,68.0,29.75,East,98,3.0,10.0,77,0.00,,,0.34,,2013-05-30 16:12:00,
2013-05-30 11:23:00,76.0,67.0,29.75,WNW,302,3.0,13.0,74,0.00,,,0.34,,2013-05-30 16:23:00,
2013-05-30 11:33:00,76.0,68.0,29.75,NNW,339,1.0,10.0,76,0.00,,,0.34,,2013-05-30 16:33:00,
2013-05-30 11:42:00,76.0,68.0,29.75,NNW,339,1.0,10.0,76,0.00,,,0.34,,2013-05-30 16:42:00,
2013-05-30 11:52:00,76.0,68.0,29.75,NW,324,3.0,12.0,77,0.00,,,0.34,,2013-05-30 16:52:00,
2013-05-30 12:02:00,77.0,68.0,29.74,NNW,333,3.0,12.0,75,0.00,,,0.34,,2013-05-30 17:02:00,
2013-05-30 12:11:00,77.0,68.0,29.74,NNW,333,3.0,12.0,75,0.00,,,0.34,,2013-05-30 17:11:00,
2013-05-30 12:22:00,76.0,68.0,29.72,NNE,23,4.0,8.0,76,0.00,,,0.34,,2013-05-30 17:22:00,
2013-05-30 12:32:00,76.0,69.0,29.73,NE,44,4.0,11.0,78,0.00,,,0.34,,2013-05-30 17:32:00,
2013-05-30 12:42:00,76.0,69.0,29.73,NE,44,4.0,11.0,78,0.00,,,0.34,,2013-05-30 17:42:00,
2013-05-30 12:52:00,77.0,70.0,29.73,NNE,12,1.0,9.0,78,0.00,,,0.34,,2013-05-30 17:52:00,
2013-05-30 13:02:00,77.0,70.0,29.74,NE,38,3.0,12.0,78,0.00,,,0.34,,2013-05-30 18:02:00,
2013-05-30 13:11:00,77.0,70.0,29.74,NE,38,3.0,12.0,78,0.00,,,0.34,,2013-05-30 18:11:00,
2013-05-30 13:22:00,77.0,69.0,29.73,NE,48,3.0,11.0,76,0.00,,,0.34,,2013-05-30 18:22:00,
2013-05-30 13:32:00,77.0,68.0,29.72,West,275,3.0,9.0,75,0.00,,,0.34,,2013-05-30 18:32:00,
2013-05-30 13:42:00,77.0,68.0,29.72,West,275,3.0,9.0,75,0.00,,,0.34,,2013-05-30 18:42:00,
2013-05-30 13:51:00,75.0,67.0,29.72,NE,51,2.0,8.0,76,0.00,,,0.34,,2013-05-30 18:51:00,
2013-05-30 14:01:00,74.0,66.0,29.71,NE,55,3.0,9.0,75,0.00,,,0.34,,2013-05-30 19:01:00,
2013-05-30 14:11:00,74.0,66.0,29.71,NE,55,3.0,9.0,75,0.00,,,0.34,,2013-05-30 19:11:00,
2013-05-30 14:23:00,73.0,65.0,29.72,NE,46,1.0,7.0,77,0.01,,,0.35,,2013-05-30 19:23:00,
2013-05-30 14:32:00,73.0,63.0,29.73,NE,41,3.0,10.0,72,0.01,,,0.35,,2013-05-30 19:32:00,
2013-05-30 14:42:00,73.0,63.0,29.73,NE,41,3.0,10.0,72,0.01,,,0.35,,2013-05-30 19:42:00,
2013-05-30 14:52:00,72.0,64.0,29.73,ENE,59,2.0,7.0,75,0.01,,,0.35,,2013-05-30 19:52:00,
2013-05-30 15:01:00,70.0,64.0,29.73,SW,236,2.0,11.0,80,0.01,,,0.35,,2013-05-30 20:01:00,
2013-05-30 15:11:00,70.0,64.0,29.73,SW,236,2.0,11.0,80,0.01,,,0.35,,2013-05-30 20:11:00,
2013-05-30 15:22:00,66.0,62.0,29.74,NNW,341,5.0,12.0,87,0.00,,,0.35,,2013-05-30 20:22:00,
2013-05-30 15:33:00,66.0,63.0,29.73,NE,56,1.0,6.0,89,0.00,,,0.35,,2013-05-30 20:33:00,
2013-05-30 15:42:00,66.0,63.0,29.73,NE,56,1.0,6.0,89,0.00,,,0.35,,2013-05-30 20:42:00,
2013-05-30 15:52:00,67.0,64.0,29.73,East,95,0.0,4.0,91,0.00,,,0.35,,2013-05-30 20:52:00,
2013-05-30 16:01:00,69.0,65.0,29.72,ENE,66,2.0,5.0,88,0.00,,,0.35,,2013-05-30 21:01:00,
2013-05-30 16:11:00,69.0,65.0,29.72,ENE,66,2.0,5.0,88,0.00,,,0.35,,2013-05-30 21:11:00,
2013-05-30 16:22:00,70.0,65.0,29.71,NE,46,3.0,12.0,84,0.00,,,0.35,,2013-05-30 21:22:00,
2013-05-30 16:33:00,71.0,67.0,29.69,ENE,65,3.0,8.0,86,0.00,,,0.35,,2013-05-30 21:33:00,
2013-05-30 16:42:00,71.0,67.0,29.69,ENE,65,3.0,8.0,86,0.00,,,0.35,,2013-05-30 21:42:00,
2013-05-30 16:53:00,72.0,67.0,29.69,ENE,58,2.0,7.0,85,0.00,,,0.35,,2013-05-30 21:53:00,
2013-05-30 17:02:00,73.0,69.0,29.69,NE,48,2.0,8.0,87,0.00,,,0.35,,2013-05-30 22:02:00,
2013-05-30 17:12:00,73.0,69.0,29.69,NE,48,2.0,8.0,87,0.00,,,0.35,,2013-05-30 22:12:00,
2013-05-30 17:23:00,73.0,68.0,29.69,ENE,65,2.0,7.0,85,0.00,,,0.35,,2013-05-30 22:23:00,
2013-05-30 17:33:00,72.0,67.0,29.67,SW,217,3.0,11.0,85,0.00,,,0.35,,2013-05-30 22:33:00,
2013-05-30 17:42:00,72.0,67.0,29.67,SW,217,3.0,11.0,85,0.00,,,0.35,,2013-05-30 22:42:00,
2013-05-30 17:52:00,72.0,67.0,29.69,NE,53,3.0,10.0,85,0.00,,,0.35,,2013-05-30 22:52:00,
2013-05-30 18:02:00,72.0,67.0,29.68,ENE,72,4.0,10.0,85,0.00,,,0.35,,2013-05-30 23:02:00,
2013-05-30 18:11:00,72.0,67.0,29.68,ENE,72,4.0,10.0,85,0.00,,,0.35,,2013-05-30 23:11:00,
2013-05-30 18:22:00,72.0,68.0,29.69,NNE,30,1.0,7.0,86,0.00,,,0.35,,2013-05-30 23:22:00,
2013-05-30 18:32:00,72.0,68.0,29.69,NW,317,2.0,7.0,87,0.00,,,0.35,,2013-05-30 23:32:00,
2013-05-30 18:41:00,72.0,68.0,29.69,NW,317,2.0,7.0,87,0.00,,,0.35,,2013-05-30 23:41:00,
2013-05-30 18:52:00,72.0,68.0,29.68,NNE,31,3.0,11.0,87,0.00,,,0.35,,2013-05-30 23:52:00,
2013-05-30 19:01:00,72.0,68.0,29.70,NE,50,1.0,6.0,87,0.00,,,0.35,,2013-05-31 00:01:00,
2013-05-30 19:11:00,72.0,68.0,29.70,NE,50,1.0,6.0,87,0.00,,,0.35,,2013-05-31 00:11:00,
2013-05-30 19:22:00,72.0,67.0,29.70,North,350,2.0,5.0,85,0.00,,,0.35,,2013-05-31 00:22:00,
2013-05-30 19:32:00,72.0,67.0,29.70,NNW,341,1.0,7.0,85,0.00,,,0.35,,2013-05-31 00:32:00,
2013-05-30 19:42:00,72.0,67.0,29.70,NNW,341,1.0,7.0,85,0.00,,,0.35,,2013-05-31 00:42:00,
2013-05-30 19:52:00,71.0,67.0,29.70,NE,49,3.0,6.0,86,0.00,,,0.35,,2013-05-31 00:52:00,
2013-05-30 20:01:00,71.0,67.0,29.70,ENE,67,2.0,12.0,87,0.00,,,0.35,,2013-05-31 01:01:00,
2013-05-30 20:12:00,71.0,67.0,29.70,ENE,67,2.0,12.0,87,0.00,,,0.35,,2013-05-31 01:12:00,
2013-05-30 20:21:00,71.0,67.0,29.70,ENE,78,4.0,7.0,87,0.00,,,0.35,,2013-05-31 01:21:00,
2013-05-30 20:32:00,71.0,67.0,29.68,NE,50,3.0,7.0,87,0.00,,,0.35,,2013-05-31 01:32:00,
2013-05-30 20:42:00,71.0,67.0,29.70,ENE,64,1.0,6.0,87,0.00,,,0.35,,2013-05-31 01:42:00,
2013-05-30 20:52:00,71.0,67.0,29.70,ENE,64,1.0,6.0,87,0.00,,,0.35,,2013-05-31 01:52:00,
2013-05-30 21:02:00,72.0,68.0,29.70,WNW,284,2.0,6.0,87,0.00,,,0.35,,2013-05-31 02:02:00,
2013-05-30 21:11:00,72.0,68.0,29.70,WNW,284,2.0,6.0,87,0.00,,,0.35,,2013-05-31 02:11:00,
2013-05-30 21:22:00,72.0,68.0,29.72,NE,48,1.0,6.0,87,0.00,,,0.35,,2013-05-31 02:22:00,
2013-05-30 21:32:00,71.0,67.0,29.72,NE,56,0.0,4.0,87,0.00,,,0.35,,2013-05-31 02:32:00,
2013-05-30 21:41:00,71.0,67.0,29.72,NE,56,0.0,4.0,87,0.00,,,0.35,,2013-05-31 02:41:00,
2013-05-30 21:51:00,71.0,67.0,29.73,NNE,29,0.0,4.0,87,0.00,,,0.35,,2013-05-31 02:51:00,
2013-05-30 22:01:00,71.0,67.0,29.73,ENE,65,0.0,4.0,87,0.00,,,0.35,,2013-05-31 03:01:00,
2013-05-30 22:11:00,71.0,67.0,29.73,ENE,65,0.0,4.0,87,0.00,,,0.35,,2013-05-31 03:11:00,
2013-05-30 22:21:00,71.0,67.0,29.74,ENE,69,1.0,5.0,87,0.00,,,0.35,,2013-05-31 03:21:00,
2013-05-30 22:33:00,71.0,67.0,29.74,ENE,69,1.0,5.0,87,0.00,,,0.35,,2013-05-31 03:33:00,
2013-05-30 22:40:00,64.0,62.0,29.79,SE,134,0.0,1.0,94,0.00,,,0.35,,2013-05-31 03:40:00,
2013-05-30 22:43:00,71.0,67.0,29.74,ENE,69,1.0,5.0,87,0.00,,,0.35,,2013-05-31 03:43:00,
2013-05-30 22:53:00,71.0,67.0,29.74,ENE,69,1.0,5.0,87,0.00,,,0.35,,2013-05-31 03:53:00,
2013-05-30 23:02:00,64.0,62.0,29.79,SE,134,0.0,1.0,94,0.00,,,0.35,,2013-05-31 04:02:00,
2013-05-30 23:12:00,64.0,62.0,29.79,SE,134,0.0,1.0,94,0.00,,,0.35,,2013-05-31 04:12:00,
2013-05-30 23:22:00,64.0,62.0,29.79,SE,134,0.0,1.0,94,0.00,,,0.35,,2013-05-31 04:22:00,
2013-05-30 23:33:00,64.0,62.0,29.79,SE,134,0.0,1.0,94,0.00,,,0.35,,2013-05-31 04:33:00,